Time;durP1;ratioP1;P1;durP2;ratioP2;P2;SDS_P1;SDS_P2;PMS_P1;PMS_P2;Temp;Humidity;BMP_temperature;BMP_pressure;BME280_temperature;BME280_humidity;BME280_pressure;Samples;Min_cycle;Max_cycle;Signal;HPM_P1;HPM_P2
2023/04/30 05:01:09;;;;;;;7.50;4.93;;;11.10;99.90;;;;;;6960137;23;20289;-75
2023/04/30 05:04:12;;;;;;;8.27;5.28;;;11.00;99.90;;;;;;6126086;29;20044;-75
2023/04/30 05:07:14;;;;;;;7.28;4.35;;;11.00;99.90;;;;;;6126180;29;20048;-74
2023/04/30 05:10:16;;;;;;;8.02;4.38;;;10.80;99.90;;;;;;6119888;29;20058;-76
2023/04/30 05:13:18;;;;;;;7.72;4.45;;;11.00;99.90;;;;;;6103934;29;20055;-75
2023/04/30 05:16:21;;;;;;;6.95;4.55;;;11.30;99.90;;;;;;6110949;29;20051;-74
2023/04/30 05:19:23;;;;;;;10.10;5.35;;;11.40;99.90;;;;;;6105782;29;20048;-74
2023/04/30 05:22:25;;;;;;;10.95;5.60;;;11.50;99.90;;;;;;6115331;29;20060;-74
2023/04/30 05:25:27;;;;;;;12.25;7.43;;;11.40;99.90;;;;;;6110621;29;20058;-75
2023/04/30 05:28:29;;;;;;;11.23;7.03;;;11.20;99.90;;;;;;6127355;29;20058;-73
2023/04/30 05:31:32;;;;;;;11.88;7.40;;;11.30;99.90;;;;;;6136841;29;20436;-74
2023/04/30 05:34:34;;;;;;;13.80;8.50;;;11.30;99.90;;;;;;6131603;29;20049;-76
2023/04/30 05:37:36;;;;;;;11.55;7.32;;;11.30;99.90;;;;;;6140042;29;20125;-75
2023/04/30 05:40:38;;;;;;;13.02;7.72;;;11.50;99.90;;;;;;6137889;29;20056;-76
2023/04/30 05:43:40;;;;;;;11.50;7.53;;;11.50;99.90;;;;;;6127773;29;20131;-75
2023/04/30 05:46:43;;;;;;;12.80;8.43;;;11.60;99.90;;;;;;6126864;29;20640;-74
2023/04/30 05:49:45;;;;;;;13.30;8.20;;;11.50;99.90;;;;;;6143850;29;20134;-76
2023/04/30 05:52:47;;;;;;;13.15;8.65;;;11.30;99.90;;;;;;6117478;29;20059;-76
2023/04/30 05:55:48;;;;;;;12.38;8.60;;;11.30;99.90;;;;;;6125190;29;20050;-75
2023/04/30 05:58:51;;;;;;;12.55;8.40;;;11.50;99.90;;;;;;6125751;29;20547;-73
2023/04/30 06:01:54;;;;;;;12.68;8.68;;;11.50;99.90;;;;;;6117145;29;20052;-74
2023/04/30 06:04:56;;;;;;;12.40;8.30;;;11.60;99.90;;;;;;6126076;29;20134;-76
2023/04/30 06:07:58;;;;;;;13.15;8.27;;;11.80;99.90;;;;;;6126467;29;20486;-75
2023/04/30 06:11:02;;;;;;;13.13;8.10;;;11.70;99.90;;;;;;6127521;29;20047;-75
2023/04/30 06:14:04;;;;;;;11.98;7.85;;;11.70;99.90;;;;;;6105872;29;20055;-77
2023/04/30 06:17:07;;;;;;;12.73;8.52;;;11.70;99.90;;;;;;6124321;29;20051;-76
2023/04/30 06:20:10;;;;;;;12.00;8.07;;;12.00;99.90;;;;;;6125497;29;20043;-76
2023/04/30 06:23:12;;;;;;;12.03;8.17;;;11.90;99.90;;;;;;6120608;29;20055;-74
2023/04/30 06:26:14;;;;;;;12.70;8.68;;;12.10;99.90;;;;;;6121513;29;20385;-74
2023/04/30 06:29:16;;;;;;;12.25;8.00;;;12.00;99.90;;;;;;6121905;29;20051;-75
2023/04/30 06:32:19;;;;;;;14.88;9.35;;;12.20;99.90;;;;;;6129188;29;20060;-75
2023/04/30 06:35:21;;;;;;;11.30;8.50;;;12.20;99.90;;;;;;6133536;29;20048;-76
2023/04/30 06:38:23;;;;;;;13.43;8.70;;;12.20;99.90;;;;;;6136249;29;20052;-75
2023/04/30 06:41:25;;;;;;;12.55;8.63;;;12.50;99.90;;;;;;6122338;29;20051;-76
2023/04/30 06:44:27;;;;;;;12.85;8.40;;;12.60;99.90;;;;;;6138503;29;20493;-75
2023/04/30 06:47:33;;;;;;;13.15;8.90;;;12.70;99.90;;;;;;6124059;29;20048;-75
2023/04/30 06:50:42;;;;;;;11.43;8.52;;;12.70;99.90;;;;;;6128571;29;20083;-76
2023/04/30 06:53:44;;;;;;;12.43;8.75;;;12.60;99.90;;;;;;6112610;29;20052;-75
2023/04/30 06:56:46;;;;;;;12.63;8.57;;;12.70;99.90;;;;;;6129917;29;20052;-75
2023/04/30 06:59:48;;;;;;;12.10;8.70;;;12.90;99.90;;;;;;6117585;29;20058;-77
2023/04/30 07:02:51;;;;;;;13.88;8.95;;;12.90;99.90;;;;;;6106571;29;20060;-75
2023/04/30 07:05:53;;;;;;;11.40;7.85;;;12.90;99.90;;;;;;6116812;29;20044;-75
2023/04/30 07:08:56;;;;;;;11.55;8.13;;;13.20;99.90;;;;;;6124745;29;20055;-76
2023/04/30 07:11:58;;;;;;;12.73;8.02;;;13.30;99.90;;;;;;6129931;29;20051;-75
2023/04/30 07:15:00;;;;;;;11.32;7.97;;;13.40;99.90;;;;;;6128578;29;20598;-77
2023/04/30 07:18:03;;;;;;;10.93;7.78;;;13.40;99.90;;;;;;6108736;29;20059;-76
2023/04/30 07:21:07;;;;;;;10.68;7.50;;;13.50;99.90;;;;;;6106164;29;20059;-74
2023/04/30 07:24:08;;;;;;;9.90;6.80;;;13.60;99.90;;;;;;6108230;29;20052;-76
2023/04/30 07:27:10;;;;;;;9.48;6.65;;;13.80;99.90;;;;;;6118449;29;20044;-76
2023/04/30 07:30:13;;;;;;;10.20;6.90;;;13.90;99.90;;;;;;6116318;29;20044;-75
2023/04/30 07:33:16;;;;;;;9.70;6.40;;;14.00;99.90;;;;;;6121800;29;20056;-75
2023/04/30 07:36:18;;;;;;;9.05;6.50;;;13.90;99.90;;;;;;6126789;29;20044;-75
2023/04/30 07:39:20;;;;;;;8.48;5.63;;;13.80;99.90;;;;;;6153397;29;20047;-75
2023/04/30 07:42:22;;;;;;;10.65;6.68;;;13.90;99.90;;;;;;6135772;29;20055;-75
2023/04/30 07:45:23;;;;;;;9.57;6.40;;;13.80;99.90;;;;;;6128940;29;20055;-75
2023/04/30 07:48:27;;;;;;;9.13;6.07;;;13.80;99.90;;;;;;6106597;29;20048;-76
2023/04/30 07:51:28;;;;;;;9.38;5.88;;;13.80;99.90;;;;;;6125130;29;20055;-76
2023/04/30 07:54:30;;;;;;;10.82;6.63;;;13.90;99.90;;;;;;6129138;29;20062;-75
2023/04/30 07:57:32;;;;;;;8.85;6.05;;;13.80;99.90;;;;;;6120530;29;20080;-75
2023/04/30 08:00:34;;;;;;;9.63;6.18;;;13.90;99.90;;;;;;6120302;29;20509;-76
2023/04/30 08:03:37;;;;;;;9.45;6.28;;;14.10;99.40;;;;;;6119681;29;20099;-76
2023/04/30 08:06:39;;;;;;;7.72;5.93;;;14.20;99.70;;;;;;6130210;29;20482;-76
2023/04/30 08:09:41;;;;;;;8.73;6.10;;;14.10;99.10;;;;;;6134859;29;20047;-77
2023/04/30 08:12:44;;;;;;;7.72;5.65;;;14.40;99.10;;;;;;6131183;29;20394;-76
2023/04/30 08:15:45;;;;;;;8.00;4.80;;;14.40;98.90;;;;;;6132545;29;20067;-78
2023/04/30 08:18:49;;;;;;;8.10;5.22;;;14.50;97.90;;;;;;6133779;29;20048;-77
2023/04/30 08:21:51;;;;;;;11.07;5.55;;;14.70;96.80;;;;;;6125693;29;20052;-75
2023/04/30 08:24:54;;;;;;;6.88;4.88;;;14.70;97.00;;;;;;6132473;29;20051;-76
2023/04/30 08:27:56;;;;;;;11.75;5.05;;;14.70;96.50;;;;;;6127722;29;20119;-77
2023/04/30 08:30:58;;;;;;;6.95;4.93;;;14.90;96.10;;;;;;6131521;29;20055;-77
2023/04/30 08:34:01;;;;;;;6.35;4.35;;;14.70;96.00;;;;;;6136683;29;20509;-77
2023/04/30 08:37:03;;;;;;;6.07;4.20;;;14.70;95.90;;;;;;6139808;29;20047;-75
2023/04/30 08:40:08;;;;;;;6.47;3.80;;;14.90;95.90;;;;;;6133192;29;20048;-76
2023/04/30 08:43:10;;;;;;;5.93;3.97;;;15.10;95.60;;;;;;6109558;29;20052;-77
2023/04/30 08:46:13;;;;;;;6.10;4.13;;;15.20;95.10;;;;;;6129728;29;20412;-76
2023/04/30 08:49:16;;;;;;;6.00;4.03;;;15.30;95.00;;;;;;6143384;29;20056;-77
2023/04/30 08:52:19;;;;;;;6.35;3.85;;;15.10;95.00;;;;;;6124217;29;20056;-76
2023/04/30 08:55:22;;;;;;;5.13;3.63;;;15.20;95.10;;;;;;6111027;29;20059;-77
2023/04/30 18:28:08;;;;;;;4.20;2.40;;;17.40;78.10;;;;;;6374576;27;20366;-78
